createdAt,value
2018-08-06T00:01:08.123Z,8.97
2018-08-06T00:03:35.787Z,9.73
2018-08-06T00:06:03.503Z,8.20
2018-08-06T00:08:31.206Z,12.90
2018-08-06T00:10:58.808Z,19.17
2018-08-06T00:13:26.445Z,16.60
2018-08-06T00:15:54.072Z,16.60
2018-08-06T00:18:21.838Z,16.43
2018-08-06T00:20:49.415Z,18.73
2018-08-06T00:23:17.009Z,17.00
2018-08-06T00:25:44.633Z,17.93
2018-08-06T00:28:12.281Z,26.37
2018-08-06T00:30:39.921Z,18.33
2018-08-06T00:33:07.532Z,20.30
2018-08-06T00:35:35.216Z,17.93
2018-08-06T00:38:02.904Z,12.80
2018-08-06T00:40:30.572Z,14.40
2018-08-06T00:42:58.186Z,19.23
2018-08-06T00:45:25.844Z,14.63
2018-08-06T00:47:53.461Z,16.27
2018-08-06T00:50:21.074Z,18.17
2018-08-06T00:52:48.704Z,17.27
2018-08-06T00:55:17.644Z,13.83
2018-08-06T00:57:45.223Z,13.10
2018-08-06T01:00:15.237Z,17.63
2018-08-06T01:02:43.025Z,12.37
2018-08-06T01:05:11.735Z,13.70
2018-08-06T01:07:39.752Z,15.40
2018-08-06T01:10:09.297Z,13.50
2018-08-06T01:12:37.860Z,17.70
2018-08-06T01:15:06.093Z,13.03
2018-08-06T01:17:33.800Z,16.37
2018-08-06T01:20:01.447Z,15.27
2018-08-06T01:22:29.133Z,11.17
2018-08-06T01:24:56.796Z,16.97
2018-08-06T01:27:24.415Z,15.60
2018-08-06T01:29:52.141Z,8.37
2018-08-06T01:32:19.823Z,14.83
2018-08-06T01:34:47.528Z,13.20
2018-08-06T01:37:15.139Z,11.53
2018-08-06T01:39:42.739Z,8.63
2018-08-06T01:42:10.343Z,13.23
2018-08-06T01:44:37.964Z,10.23
2018-08-06T01:47:05.676Z,7.93
2018-08-06T01:49:33.282Z,7.97
2018-08-06T01:52:00.872Z,9.53
2018-08-06T01:54:28.485Z,12.63
2018-08-06T01:56:56.134Z,8.03
2018-08-06T01:59:23.691Z,16.50
2018-08-06T02:01:51.368Z,9.90
2018-08-06T02:04:18.973Z,8.20
2018-08-06T02:06:46.579Z,6.80
2018-08-06T02:09:14.196Z,5.90
2018-08-06T02:11:41.811Z,6.63
2018-08-06T02:14:09.415Z,10.03
2018-08-06T02:16:37.095Z,9.07
2018-08-06T02:19:04.706Z,9.73
2018-08-06T02:21:32.272Z,7.97
2018-08-06T02:23:59.951Z,8.60
2018-08-06T02:26:27.700Z,8.70
2018-08-06T02:28:55.339Z,7.37
2018-08-06T02:31:23.008Z,7.57
2018-08-06T02:33:50.631Z,6.13
2018-08-06T02:36:18.300Z,8.70
2018-08-06T02:38:45.891Z,8.30
2018-08-06T02:41:13.533Z,8.03
2018-08-06T02:43:41.248Z,8.87
2018-08-06T02:46:08.896Z,5.67
2018-08-06T02:48:36.511Z,5.20
2018-08-06T02:51:04.171Z,7.43
2018-08-06T02:53:31.822Z,7.50
2018-08-06T02:55:59.500Z,7.83
2018-08-06T02:58:27.245Z,6.30
2018-08-06T03:00:54.979Z,5.90
2018-08-06T03:03:22.602Z,7.93
2018-08-06T03:05:50.210Z,4.63
2018-08-06T03:08:17.859Z,6.87
2018-08-06T03:10:45.515Z,5.93
2018-08-06T03:13:13.170Z,9.37
2018-08-06T03:15:40.836Z,5.67
2018-08-06T03:18:08.516Z,8.17
2018-08-06T03:20:36.100Z,5.13
2018-08-06T03:23:03.743Z,6.97
2018-08-06T03:25:31.468Z,4.67
2018-08-06T03:27:59.038Z,8.30
2018-08-06T03:33:08.436Z,8.15
2018-08-06T03:35:36.052Z,5.27
2018-08-06T03:38:03.690Z,4.27
2018-08-06T03:40:31.399Z,5.17
2018-08-06T03:42:59.028Z,3.90
2018-08-06T03:45:26.655Z,8.77
2018-08-06T03:47:54.325Z,4.13
2018-08-06T03:50:21.958Z,4.10
2018-08-06T03:52:49.591Z,5.60
2018-08-06T03:55:17.275Z,4.37
2018-08-06T03:57:44.891Z,4.63
2018-08-06T04:00:13.703Z,4.40
2018-08-06T04:02:41.908Z,7.63
2018-08-06T04:05:11.303Z,3.97
2018-08-06T04:07:39.348Z,3.90
2018-08-06T04:10:08.303Z,4.13
2018-08-06T04:12:35.922Z,4.43
2018-08-06T04:15:04.332Z,4.47
2018-08-06T04:17:31.971Z,7.37
2018-08-06T04:19:59.603Z,5.13
2018-08-06T04:22:27.215Z,8.77
2018-08-06T04:24:54.911Z,9.00
2018-08-06T04:27:22.539Z,4.23
2018-08-06T04:29:50.115Z,5.43
2018-08-06T04:32:17.752Z,6.83
2018-08-06T04:34:45.341Z,4.53
2018-08-06T04:37:12.944Z,4.57
2018-08-06T04:39:40.623Z,5.93
2018-08-06T04:42:08.263Z,3.67
2018-08-06T04:44:35.903Z,4.30
2018-08-06T04:47:03.588Z,5.20
2018-08-06T04:49:31.165Z,4.73
2018-08-06T04:51:58.804Z,3.97
2018-08-06T04:54:26.465Z,4.27
2018-08-06T04:56:54.091Z,4.07
2018-08-06T04:59:21.765Z,5.47
2018-08-06T05:01:49.384Z,3.80
2018-08-06T05:04:16.952Z,5.27
2018-08-06T05:06:44.675Z,5.90
2018-08-06T05:09:19.675Z,11.37
2018-08-06T05:11:47.379Z,8.97
2018-08-06T05:14:15.009Z,4.17
2018-08-06T05:16:42.769Z,4.83
2018-08-06T05:19:10.634Z,3.90
2018-08-06T05:21:38.390Z,4.13
2018-08-06T05:24:06.120Z,10.83
2018-08-06T05:26:33.905Z,4.33
2018-08-06T05:29:01.575Z,3.77
2018-08-06T05:31:29.331Z,3.47
2018-08-06T05:33:57.922Z,3.63
2018-08-06T05:36:25.539Z,8.07
2018-08-06T05:38:54.476Z,4.37
2018-08-06T05:41:23.422Z,3.40
2018-08-06T05:43:51.903Z,3.30
2018-08-06T05:46:19.585Z,4.20
2018-08-06T05:48:47.187Z,5.87
2018-08-06T05:51:14.805Z,4.33
2018-08-06T05:53:42.491Z,5.53
2018-08-06T05:56:10.759Z,3.77
2018-08-06T05:58:38.980Z,3.33
2018-08-06T06:01:06.747Z,5.73
2018-08-06T06:03:34.423Z,3.80
2018-08-06T06:06:02.052Z,4.30
2018-08-06T06:08:29.752Z,3.57
2018-08-06T06:10:57.324Z,3.30
2018-08-06T06:13:24.960Z,3.03
2018-08-06T06:15:52.760Z,3.30
2018-08-06T06:18:20.320Z,17.07
2018-08-06T06:20:47.932Z,41.13
2018-08-06T06:23:15.654Z,9.47
2018-08-06T06:25:43.307Z,16.37
2018-08-06T06:28:10.973Z,8.63
2018-08-06T06:30:38.675Z,8.27
2018-08-06T06:33:06.336Z,5.77
2018-08-06T06:35:33.988Z,3.50
2018-08-06T06:38:01.668Z,4.53
2018-08-06T06:40:29.437Z,5.80
2018-08-06T06:42:57.055Z,3.20
2018-08-06T06:45:24.771Z,2.87
2018-08-06T06:47:52.552Z,2.80
2018-08-06T06:50:20.131Z,2.70
2018-08-06T06:52:47.735Z,3.20
2018-08-06T06:55:15.381Z,2.57
2018-08-06T06:57:43.456Z,2.80
2018-08-06T07:00:11.380Z,3.13
2018-08-06T07:02:39.563Z,3.53
2018-08-06T07:05:07.403Z,6.80
2018-08-06T07:07:35.476Z,5.83
2018-08-06T07:10:03.752Z,1.77
2018-08-06T07:12:31.465Z,3.23
2018-08-06T07:14:59.295Z,2.40
2018-08-06T07:17:26.947Z,2.07
2018-08-06T07:19:54.764Z,1.83
2018-08-06T07:22:22.925Z,4.50
2018-08-06T07:24:50.556Z,13.07
2018-08-06T07:27:18.167Z,10.63
2018-08-06T07:29:45.950Z,19.67
2018-08-06T07:32:13.655Z,44.60
2018-08-06T07:34:41.342Z,64.20
2018-08-06T07:37:08.990Z,39.20
2018-08-06T07:39:36.597Z,36.33
2018-08-06T07:42:04.303Z,22.83
2018-08-06T07:44:32.164Z,22.93
2018-08-06T07:46:59.817Z,19.23
2018-08-06T07:49:27.481Z,14.60
2018-08-06T07:51:55.056Z,21.70
2018-08-06T07:54:22.684Z,26.77
2018-08-06T07:56:50.259Z,20.67
2018-08-06T07:59:17.916Z,28.40
2018-08-06T08:01:45.571Z,28.00
2018-08-06T08:04:13.198Z,21.03
2018-08-06T08:06:40.935Z,19.93
2018-08-06T08:09:10.068Z,12.27
2018-08-06T08:11:37.875Z,14.07
2018-08-06T08:14:05.749Z,17.00
2018-08-06T08:16:33.813Z,18.10
2018-08-06T08:19:01.376Z,17.93
2018-08-06T08:21:29.092Z,16.80
2018-08-06T08:23:56.759Z,12.53
2018-08-06T08:26:24.526Z,14.90
2018-08-06T08:28:52.284Z,15.60
2018-08-06T08:31:19.933Z,13.73
2018-08-06T08:33:47.634Z,9.37
2018-08-06T08:36:15.464Z,4.93
2018-08-06T08:38:43.208Z,4.77
2018-08-06T08:41:11.127Z,10.07
2018-08-06T08:43:38.776Z,10.60
2018-08-06T08:46:06.612Z,4.80
2018-08-06T08:48:35.565Z,8.37
2018-08-06T08:51:03.304Z,6.60
2018-08-06T08:53:30.973Z,7.23
2018-08-06T08:55:59.609Z,6.43
2018-08-06T08:58:27.292Z,3.53
2018-08-06T09:00:55.130Z,3.17
2018-08-06T09:03:22.838Z,2.70
2018-08-06T09:05:50.525Z,3.67
2018-08-06T09:08:18.189Z,2.97
2018-08-06T09:10:46.340Z,2.53
2018-08-06T09:13:15.948Z,5.70
2018-08-06T09:15:43.523Z,2.17
2018-08-06T09:18:11.111Z,3.10
2018-08-06T09:20:38.755Z,1.83
2018-08-06T09:23:06.535Z,3.53
2018-08-06T09:25:34.199Z,2.50
2018-08-06T09:28:01.889Z,3.40
2018-08-06T09:30:29.606Z,1.70
2018-08-06T09:32:57.774Z,4.90
2018-08-06T09:35:25.394Z,7.40
2018-08-06T09:37:53.192Z,1.50
2018-08-06T09:40:21.908Z,1.73
2018-08-06T09:42:50.133Z,2.97
2018-08-06T09:45:19.036Z,1.30
2018-08-06T09:47:47.954Z,1.77
2018-08-06T09:50:16.527Z,1.87
2018-08-06T09:52:45.004Z,1.40
2018-08-06T09:55:13.958Z,3.50
2018-08-06T09:57:42.147Z,1.47
2018-08-06T10:00:19.028Z,1.70
2018-08-06T10:02:47.583Z,3.67
2018-08-06T10:05:15.258Z,2.40
2018-08-06T10:07:43.195Z,3.13
2018-08-06T10:10:12.403Z,7.10
2018-08-06T10:12:40.607Z,4.87
2018-08-06T10:15:09.056Z,5.87
2018-08-06T10:17:36.872Z,3.73
2018-08-06T10:20:06.506Z,5.60
2018-08-06T10:22:34.096Z,4.10
2018-08-06T10:25:01.790Z,4.93
2018-08-06T10:27:29.436Z,10.97
2018-08-06T10:29:57.212Z,9.30
2018-08-06T10:32:24.851Z,12.40
2018-08-06T10:34:53.617Z,6.03
2018-08-06T10:37:21.396Z,2.50
2018-08-06T10:39:49.578Z,2.73
2018-08-06T10:42:17.365Z,1.37
2018-08-06T10:44:44.986Z,1.27
2018-08-06T10:47:12.638Z,1.60
2018-08-06T10:49:40.240Z,1.73
2018-08-06T10:52:07.960Z,5.67
2018-08-06T10:54:35.631Z,3.03
2018-08-06T10:57:03.298Z,2.07
2018-08-06T10:59:30.916Z,2.77
2018-08-06T11:01:58.659Z,5.23
2018-08-06T11:04:26.369Z,3.10
2018-08-06T11:06:54.375Z,3.43
2018-08-06T11:09:22.016Z,2.53
2018-08-06T11:11:49.647Z,2.10
2018-08-06T11:14:17.427Z,2.27
2018-08-06T11:16:45.020Z,5.40
2018-08-06T11:19:12.656Z,6.80
2018-08-06T11:21:40.371Z,4.77
2018-08-06T11:24:08.243Z,8.70
2018-08-06T11:26:35.995Z,3.60
2018-08-06T11:29:03.831Z,2.00
2018-08-06T11:31:31.571Z,2.87
2018-08-06T11:33:59.250Z,2.40
2018-08-06T11:36:26.908Z,2.33
2018-08-06T11:38:54.551Z,1.90
2018-08-06T11:41:22.173Z,2.60
2018-08-06T11:43:49.788Z,1.97
2018-08-06T11:46:17.427Z,2.80
2018-08-06T11:48:45.103Z,4.00
2018-08-06T11:51:12.703Z,1.90
2018-08-06T11:53:40.382Z,6.00
2018-08-06T11:56:08.029Z,3.43
2018-08-06T11:58:35.663Z,4.47
2018-08-06T12:01:03.422Z,2.67
2018-08-06T12:03:31.096Z,2.93
2018-08-06T12:05:58.720Z,6.27
2018-08-06T12:08:26.397Z,3.93
2018-08-06T12:10:53.999Z,1.80
2018-08-06T12:13:21.594Z,3.20
2018-08-06T12:15:49.242Z,2.40
2018-08-06T12:18:16.839Z,2.87
2018-08-06T12:20:44.516Z,3.37
2018-08-06T12:23:12.189Z,7.30
2018-08-06T12:25:39.786Z,3.47
2018-08-06T12:28:07.494Z,3.00
2018-08-06T12:30:35.328Z,2.73
2018-08-06T12:33:02.968Z,5.33
2018-08-06T12:35:30.932Z,2.33
2018-08-06T12:37:58.612Z,3.23
2018-08-06T12:40:26.203Z,2.10
2018-08-06T12:42:53.875Z,2.00
2018-08-06T12:45:21.571Z,2.53
2018-08-06T12:47:49.220Z,2.47
2018-08-06T12:50:17.343Z,1.70
2018-08-06T12:52:45.138Z,1.73
2018-08-06T12:55:14.089Z,2.40
2018-08-06T12:57:42.594Z,3.80
2018-08-06T13:00:16.905Z,4.57
2018-08-06T13:02:45.101Z,2.53
2018-08-06T13:05:12.910Z,2.40
2018-08-06T13:07:41.143Z,6.73
2018-08-06T13:10:08.890Z,4.70
2018-08-06T13:12:37.765Z,6.97
2018-08-06T13:15:06.184Z,3.37
2018-08-06T13:17:33.847Z,2.00
2018-08-06T13:20:02.338Z,3.40
2018-08-06T13:22:30.201Z,4.63
2018-08-06T13:24:57.967Z,2.23
2018-08-06T13:27:25.580Z,2.00
2018-08-06T13:29:53.251Z,5.20
2018-08-06T13:32:20.924Z,3.37
2018-08-06T13:34:48.500Z,2.60
2018-08-06T13:37:16.178Z,2.00
2018-08-06T13:39:43.778Z,2.20
2018-08-06T13:42:11.561Z,2.17
2018-08-06T13:44:39.196Z,1.80
2018-08-06T13:47:06.900Z,1.70
2018-08-06T13:49:34.444Z,1.70
2018-08-06T13:52:02.119Z,1.70
2018-08-06T13:54:29.802Z,3.87
2018-08-06T13:56:57.383Z,2.17
2018-08-06T13:59:25.228Z,3.03
2018-08-06T14:01:52.695Z,2.83
2018-08-06T14:04:20.357Z,3.20
2018-08-06T14:06:48.033Z,3.27
2018-08-06T14:09:15.652Z,2.17
2018-08-06T14:11:43.320Z,2.73
2018-08-06T14:14:10.955Z,3.00
2018-08-06T14:16:38.855Z,1.90
2018-08-06T14:19:06.468Z,2.03
2018-08-06T14:21:34.391Z,2.40
2018-08-06T14:24:02.120Z,2.20
2018-08-06T14:26:29.725Z,1.97
2018-08-06T14:28:57.569Z,3.70
2018-08-06T14:31:25.213Z,2.50
2018-08-06T14:33:53.443Z,2.07
2018-08-06T14:36:21.127Z,1.70
2018-08-06T14:38:48.715Z,1.70
2018-08-06T14:41:16.377Z,1.93
2018-08-06T14:43:44.029Z,1.80
2018-08-06T14:46:11.719Z,1.50
2018-08-06T14:48:39.457Z,3.90
2018-08-06T14:51:07.268Z,1.60
2018-08-06T14:53:35.036Z,2.40
2018-08-06T14:56:02.707Z,2.13
2018-08-06T14:58:30.340Z,1.70
2018-08-06T15:00:59.019Z,3.50
2018-08-06T15:03:26.767Z,6.90
2018-08-06T15:05:54.456Z,4.00
2018-08-06T15:08:22.082Z,1.67
2018-08-06T15:10:49.785Z,1.43
2018-08-06T15:13:17.464Z,1.70
2018-08-06T15:15:45.108Z,2.07
2018-08-06T15:18:12.729Z,3.33
2018-08-06T15:20:40.448Z,3.77
2018-08-06T15:23:08.088Z,4.20
2018-08-06T15:25:35.756Z,5.17
2018-08-06T15:28:03.535Z,1.80
2018-08-06T15:30:31.320Z,2.10
2018-08-06T15:32:58.944Z,1.30
2018-08-06T15:35:26.823Z,2.57
2018-08-06T15:37:54.658Z,2.47
2018-08-06T15:40:22.879Z,2.57
2018-08-06T15:42:50.534Z,2.00
2018-08-06T15:45:18.272Z,2.50
2018-08-06T15:47:46.279Z,1.47
2018-08-06T15:50:16.799Z,2.17
2018-08-06T15:52:44.492Z,3.27
2018-08-06T15:55:12.257Z,4.73
2018-08-06T15:57:39.930Z,1.67
2018-08-06T16:00:10.035Z,2.63
2018-08-06T16:02:37.827Z,2.37
2018-08-06T16:05:06.727Z,1.30
2018-08-06T16:07:34.456Z,1.80
2018-08-06T16:10:02.172Z,1.73
2018-08-06T16:12:30.264Z,1.77
2018-08-06T16:14:57.995Z,1.57
2018-08-06T16:17:25.608Z,1.73
2018-08-06T16:19:53.440Z,2.97
2018-08-06T16:22:21.126Z,41.40
2018-08-06T16:24:48.776Z,20.93
2018-08-06T16:27:16.560Z,9.63
2018-08-06T16:29:44.131Z,3.87
2018-08-06T16:32:11.846Z,3.47
2018-08-06T16:34:39.629Z,3.13
2018-08-06T16:37:07.217Z,2.47
2018-08-06T16:39:34.834Z,4.10
2018-08-06T16:42:02.638Z,2.50
2018-08-06T16:44:30.352Z,3.00
2018-08-06T16:46:58.508Z,6.17
2018-08-06T16:49:26.144Z,3.53
2018-08-06T16:51:53.798Z,2.70
2018-08-06T16:54:21.643Z,4.43
2018-08-06T16:56:49.384Z,3.50
2018-08-06T16:59:17.275Z,2.43
2018-08-06T17:01:45.001Z,2.10
2018-08-06T17:04:13.264Z,2.20
2018-08-06T17:06:40.984Z,2.00
2018-08-06T17:09:09.050Z,2.80
2018-08-06T17:11:36.755Z,3.53
2018-08-06T17:14:04.977Z,9.30
2018-08-06T17:16:32.651Z,2.87
2018-08-06T17:19:00.281Z,2.27
2018-08-06T17:21:27.920Z,1.60
2018-08-06T17:23:55.598Z,1.57
2018-08-06T17:26:28.088Z,2.20
2018-08-06T17:28:55.825Z,2.23
2018-08-06T17:31:23.435Z,1.97
2018-08-06T17:33:51.119Z,2.57
2018-08-06T17:36:18.752Z,4.80
2018-08-06T17:38:46.393Z,2.63
2018-08-06T17:41:14.056Z,3.50
2018-08-06T17:43:41.651Z,2.33
2018-08-06T17:46:09.271Z,3.53
2018-08-06T17:48:36.902Z,1.47
2018-08-06T17:51:04.487Z,3.70
2018-08-06T17:53:32.112Z,1.40
2018-08-06T17:55:59.716Z,3.10
2018-08-06T17:58:27.472Z,1.77
2018-08-06T18:00:55.145Z,1.83
2018-08-06T18:03:22.815Z,1.77
2018-08-06T18:05:50.440Z,9.20
2018-08-06T18:08:18.156Z,7.37
2018-08-06T18:10:45.769Z,3.33
2018-08-06T18:13:13.376Z,2.53
2018-08-06T18:15:40.988Z,1.90
2018-08-06T18:18:08.683Z,2.67
2018-08-06T18:20:36.423Z,5.53
2018-08-06T18:23:04.083Z,4.10
2018-08-06T18:25:31.832Z,1.40
2018-08-06T18:27:59.427Z,4.00
2018-08-06T18:30:27.140Z,2.03
2018-08-06T18:32:54.868Z,2.03
2018-08-06T18:35:22.447Z,1.77
2018-08-06T18:37:50.073Z,2.10
2018-08-06T18:40:19.030Z,2.83
2018-08-06T18:42:46.779Z,4.17
2018-08-06T18:45:15.923Z,1.63
2018-08-06T18:47:44.592Z,2.00
2018-08-06T18:50:13.329Z,1.47
2018-08-06T18:52:41.650Z,1.60
2018-08-06T18:55:10.844Z,2.83
2018-08-06T18:57:38.677Z,1.93
2018-08-06T19:00:08.655Z,2.00
2018-08-06T19:02:36.475Z,3.80
2018-08-06T19:05:04.440Z,3.70
2018-08-06T19:07:32.119Z,2.57
2018-08-06T19:09:59.767Z,1.70
2018-08-06T19:12:32.804Z,1.93
2018-08-06T19:15:00.420Z,1.50
2018-08-06T19:17:28.084Z,3.87
2018-08-06T19:19:55.805Z,2.73
2018-08-06T19:22:23.375Z,1.70
2018-08-06T19:24:56.451Z,1.57
2018-08-06T19:27:24.215Z,2.13
2018-08-06T19:29:51.861Z,3.80
2018-08-06T19:32:19.475Z,3.90
2018-08-06T19:34:47.187Z,3.97
2018-08-06T19:37:20.319Z,6.30
2018-08-06T19:39:47.947Z,5.03
2018-08-06T19:42:15.640Z,1.80
2018-08-06T19:44:43.252Z,2.77
2018-08-06T19:47:10.919Z,1.30
2018-08-06T19:49:44.132Z,1.50
2018-08-06T19:52:11.759Z,2.00
2018-08-06T19:54:39.343Z,1.87
2018-08-06T19:57:07.093Z,1.70
2018-08-06T19:59:34.755Z,1.50
2018-08-06T20:02:02.488Z,2.20
2018-08-06T20:04:30.132Z,1.47
2018-08-06T20:06:57.874Z,5.20
2018-08-06T20:09:25.572Z,3.53
2018-08-06T20:11:53.229Z,2.23
2018-08-06T20:14:22.080Z,1.30
2018-08-06T20:16:49.690Z,5.20
2018-08-06T20:19:17.363Z,2.03
2018-08-06T20:21:45.193Z,2.10
2018-08-06T20:24:12.892Z,16.20
2018-08-06T20:26:40.493Z,8.70
2018-08-06T20:29:08.200Z,11.93
2018-08-06T20:31:35.869Z,2.00
2018-08-06T20:34:03.540Z,5.93
2018-08-06T20:36:31.176Z,1.60
2018-08-06T20:38:58.833Z,1.70
2018-08-06T20:41:26.464Z,2.90
2018-08-06T20:43:54.144Z,1.80
2018-08-06T20:46:21.737Z,3.47
2018-08-06T20:48:49.348Z,3.47
2018-08-06T20:51:17.037Z,1.77
2018-08-06T20:53:44.712Z,2.50
2018-08-06T20:56:12.431Z,4.33
2018-08-06T20:58:40.120Z,2.13
2018-08-06T21:01:07.748Z,3.07
2018-08-06T21:03:35.381Z,4.93
2018-08-06T21:06:03.200Z,1.93
2018-08-06T21:08:30.896Z,1.73
2018-08-06T21:10:58.549Z,1.73
2018-08-06T21:13:26.215Z,5.10
2018-08-06T21:15:53.856Z,5.50
2018-08-06T21:18:21.488Z,2.23
2018-08-06T21:20:49.160Z,2.03
2018-08-06T21:23:16.840Z,1.87
2018-08-06T21:25:44.491Z,2.00
2018-08-06T21:28:12.157Z,2.00
2018-08-06T21:30:39.845Z,1.73
2018-08-06T21:33:07.509Z,1.50
2018-08-06T21:35:35.173Z,2.00
2018-08-06T21:38:04.084Z,6.03
2018-08-06T21:40:31.718Z,5.30
2018-08-06T21:42:59.367Z,1.77
2018-08-06T21:45:27.094Z,2.20
2018-08-06T21:47:54.728Z,2.03
2018-08-06T21:50:22.373Z,1.53
2018-08-06T21:52:49.987Z,1.23
2018-08-06T21:55:17.652Z,1.37
2018-08-06T21:57:45.320Z,1.17
2018-08-06T22:00:30.664Z,1.57
2018-08-06T22:02:58.352Z,1.90
2018-08-06T22:05:26.064Z,1.73
2018-08-06T22:07:53.700Z,5.83
2018-08-06T22:10:21.432Z,1.80
2018-08-06T22:12:49.061Z,1.80
2018-08-06T22:15:16.756Z,3.43
2018-08-06T22:17:44.453Z,1.23
2018-08-06T22:20:12.068Z,1.57
2018-08-06T22:22:39.709Z,3.70
2018-08-06T22:25:07.512Z,2.47
2018-08-06T22:27:35.151Z,1.40
2018-08-06T22:30:02.794Z,1.13
2018-08-06T22:32:30.439Z,1.50
2018-08-06T22:34:58.056Z,2.77
2018-08-06T22:37:25.644Z,1.70
2018-08-06T22:39:53.396Z,1.27
2018-08-06T22:42:21.015Z,1.43
2018-08-06T22:44:48.631Z,1.50
2018-08-06T22:47:16.381Z,1.60
2018-08-06T22:49:44.013Z,1.90
2018-08-06T22:52:11.612Z,1.60
2018-08-06T22:54:39.264Z,1.33
2018-08-06T22:57:06.829Z,1.80
2018-08-06T22:59:34.422Z,2.73
2018-08-06T23:02:02.157Z,1.23
2018-08-06T23:04:29.794Z,1.20
2018-08-06T23:06:57.455Z,3.07
2018-08-06T23:09:25.137Z,1.33
2018-08-06T23:11:52.745Z,1.40
2018-08-06T23:14:20.357Z,2.57
2018-08-06T23:16:48.006Z,1.53
2018-08-06T23:19:15.628Z,1.63
2018-08-06T23:21:43.312Z,1.70
2018-08-06T23:24:11.051Z,1.20
2018-08-06T23:26:38.670Z,3.40
2018-08-06T23:29:06.271Z,2.93
2018-08-06T23:31:33.983Z,1.50
2018-08-06T23:34:01.590Z,2.70
2018-08-06T23:36:29.193Z,1.03
2018-08-06T23:38:56.855Z,1.77
2018-08-06T23:41:24.471Z,2.27
2018-08-06T23:43:52.120Z,1.77
2018-08-06T23:46:19.828Z,1.37
2018-08-06T23:48:47.719Z,1.57
2018-08-06T23:51:15.373Z,3.20
2018-08-06T23:53:43.084Z,1.40
2018-08-06T23:56:20.292Z,18.07
2018-08-06T23:58:47.960Z,5.20
